Time;durP1;ratioP1;P1;durP2;ratioP2;P2;SDS_P1;SDS_P2;PMS_P1;PMS_P2;Temp;Humidity;BMP_temperature;BMP_pressure;BME280_temperature;BME280_humidity;BME280_pressure;Samples;Min_cycle;Max_cycle;Signal;HPM_P1;HPM_P2
2022/07/26 00:01:01;;;;;;;1.47;0.93;;;20.10;99.90;;;;;;5031427;28;20195;-73
2022/07/26 00:03:27;;;;;;;2.60;1.10;;;20.10;99.90;;;;;;5046932;28;20232;-73
2022/07/26 00:05:52;;;;;;;2.50;1.23;;;20.00;99.90;;;;;;5031030;28;20245;-73
2022/07/26 00:08:18;;;;;;;2.03;1.00;;;20.00;99.90;;;;;;5031458;28;20160;-73
2022/07/26 00:10:47;;;;;;;1.97;1.00;;;20.00;99.90;;;;;;5031161;28;20186;-73
2022/07/26 00:13:15;;;;;;;2.43;0.90;;;19.90;99.90;;;;;;5031390;28;20724;-72
2022/07/26 00:15:41;;;;;;;1.53;0.90;;;19.80;99.90;;;;;;5034791;28;20468;-72
2022/07/26 00:18:07;;;;;;;1.00;0.90;;;19.70;99.90;;;;;;5034997;28;20406;-72
2022/07/26 00:20:32;;;;;;;1.10;0.70;;;19.70;99.90;;;;;;5034951;28;20195;-72
2022/07/26 00:22:58;;;;;;;1.20;0.90;;;19.60;99.90;;;;;;5034714;28;20168;-72
2022/07/26 00:25:23;;;;;;;2.07;1.00;;;19.50;99.90;;;;;;5034579;28;20215;-72
2022/07/26 00:27:49;;;;;;;4.13;0.93;;;19.50;99.90;;;;;;5034790;28;20239;-72
2022/07/26 00:30:14;;;;;;;2.40;1.10;;;19.50;99.90;;;;;;5034799;28;20187;-73
2022/07/26 00:32:40;;;;;;;1.73;1.07;;;19.40;99.90;;;;;;5034876;28;20246;-73
2022/07/26 00:35:07;;;;;;;1.40;1.23;;;19.40;99.90;;;;;;5034485;28;20167;-73
2022/07/26 00:37:32;;;;;;;4.93;0.90;;;19.40;99.90;;;;;;5034636;28;20489;-72
2022/07/26 00:39:58;;;;;;;1.17;1.00;;;19.30;99.90;;;;;;5034599;28;20513;-73
2022/07/26 00:42:24;;;;;;;1.20;0.97;;;19.20;99.90;;;;;;5033087;28;20191;-72
2022/07/26 00:44:49;;;;;;;3.43;1.13;;;19.10;99.90;;;;;;5034205;28;20191;-72
2022/07/26 00:47:15;;;;;;;3.40;1.27;;;19.10;99.90;;;;;;5034302;28;20164;-72
2022/07/26 00:49:42;;;;;;;1.83;1.40;;;19.10;99.90;;;;;;5034063;28;20198;-72
2022/07/26 00:52:09;;;;;;;2.17;1.03;;;19.10;99.90;;;;;;5034395;28;20945;-72
2022/07/26 00:54:36;;;;;;;1.93;0.90;;;19.00;99.90;;;;;;5034111;28;20461;-72
2022/07/26 00:57:01;;;;;;;1.20;1.00;;;18.90;99.90;;;;;;5034391;28;20907;-72
2022/07/26 00:59:27;;;;;;;8.93;1.30;;;18.90;99.90;;;;;;5034224;28;20398;-72
2022/07/26 01:01:53;;;;;;;2.50;1.23;;;18.90;99.90;;;;;;5034305;28;20175;-72
2022/07/26 01:04:19;;;;;;;1.13;0.83;;;18.80;99.90;;;;;;5033717;28;20167;-72
2022/07/26 01:06:46;;;;;;;1.70;1.17;;;18.80;99.90;;;;;;5034177;28;20468;-74
2022/07/26 01:09:15;;;;;;;1.10;0.80;;;18.80;99.90;;;;;;5034031;28;20625;-73
2022/07/26 01:11:41;;;;;;;1.87;1.43;;;18.80;99.90;;;;;;5034151;28;20410;-73
2022/07/26 01:14:07;;;;;;;1.43;1.13;;;18.70;99.90;;;;;;5034037;28;20485;-73
2022/07/26 01:16:33;;;;;;;1.77;0.90;;;18.80;99.90;;;;;;5033387;28;20494;-73
2022/07/26 01:18:58;;;;;;;1.60;0.83;;;18.80;99.90;;;;;;5034011;28;20563;-72
2022/07/26 01:21:31;;;;;;;1.30;0.80;;;18.70;99.90;;;;;;5033803;28;20263;-73
2022/07/26 01:23:57;;;;;;;1.07;0.93;;;18.60;99.90;;;;;;5033662;28;20156;-72
2022/07/26 01:26:23;;;;;;;1.40;1.10;;;18.60;99.90;;;;;;5032658;28;21230;-73
2022/07/26 01:28:48;;;;;;;1.73;1.00;;;18.50;99.90;;;;;;5033746;28;20172;-72
2022/07/26 01:31:14;;;;;;;4.10;1.20;;;18.50;99.90;;;;;;5033567;28;20233;-72
2022/07/26 01:33:40;;;;;;;1.77;1.00;;;18.50;99.90;;;;;;5033580;28;20254;-73
2022/07/26 01:36:07;;;;;;;1.20;1.00;;;18.50;99.90;;;;;;5033366;28;20406;-72
2022/07/26 01:38:33;;;;;;;1.87;1.03;;;18.50;99.90;;;;;;5033569;28;20298;-72
2022/07/26 01:40:58;;;;;;;3.53;1.20;;;18.40;99.90;;;;;;5033574;28;20505;-73
2022/07/26 01:43:24;;;;;;;3.60;1.57;;;18.40;99.90;;;;;;5048766;28;20172;-72
2022/07/26 01:45:50;;;;;;;6.20;1.00;;;18.40;99.90;;;;;;5033025;28;20195;-72
2022/07/26 01:48:16;;;;;;;1.40;1.00;;;18.30;99.90;;;;;;5033360;28;20298;-72
2022/07/26 01:50:41;;;;;;;1.97;1.77;;;18.30;99.90;;;;;;5033331;28;20484;-72
2022/07/26 01:53:07;;;;;;;2.10;1.30;;;18.30;99.90;;;;;;5031753;28;20286;-72
2022/07/26 01:55:34;;;;;;;1.77;1.00;;;18.20;99.90;;;;;;5032926;28;20238;-72
2022/07/26 01:57:59;;;;;;;3.63;1.00;;;18.20;99.90;;;;;;5033244;28;20222;-72
2022/07/26 02:00:25;;;;;;;1.30;1.10;;;18.20;99.90;;;;;;5033052;28;20430;-72
2022/07/26 02:02:50;;;;;;;1.30;1.20;;;18.20;99.90;;;;;;5033149;28;20653;-72
2022/07/26 02:05:16;;;;;;;4.00;1.10;;;18.10;99.90;;;;;;5032786;28;20303;-72
2022/07/26 02:07:42;;;;;;;1.40;1.10;;;18.20;99.90;;;;;;5033047;28;20247;-72
2022/07/26 02:10:10;;;;;;;1.10;0.90;;;18.10;99.90;;;;;;5032905;28;20218;-72
2022/07/26 02:12:35;;;;;;;2.73;1.03;;;18.10;99.90;;;;;;5032965;28;20438;-72
2022/07/26 02:15:02;;;;;;;2.40;1.10;;;18.10;99.90;;;;;;5032565;28;20818;-72
2022/07/26 02:17:27;;;;;;;1.30;0.97;;;18.10;99.90;;;;;;5032870;28;20575;-73
2022/07/26 02:19:53;;;;;;;2.30;1.20;;;18.10;99.90;;;;;;5032774;28;20422;-72
2022/07/26 02:22:19;;;;;;;3.50;0.90;;;18.00;99.90;;;;;;5032768;28;20167;-72
2022/07/26 02:24:45;;;;;;;2.43;1.47;;;18.10;99.90;;;;;;5032445;28;20199;-73
2022/07/26 02:27:11;;;;;;;2.17;1.70;;;18.00;99.90;;;;;;5032716;28;20160;-73
2022/07/26 02:29:36;;;;;;;1.77;1.17;;;18.00;99.90;;;;;;5032702;28;20452;-73
2022/07/26 02:32:02;;;;;;;1.53;1.20;;;18.00;99.90;;;;;;5048035;28;20516;-72
2022/07/26 02:34:28;;;;;;;7.33;1.67;;;18.00;99.90;;;;;;5032347;28;20171;-72
2022/07/26 02:36:54;;;;;;;4.63;1.20;;;18.00;99.90;;;;;;5031446;28;20406;-73
2022/07/26 02:39:19;;;;;;;3.60;0.80;;;18.00;99.90;;;;;;5032789;28;20648;-72
2022/07/26 02:41:45;;;;;;;1.60;1.50;;;18.00;99.90;;;;;;5032682;28;20187;-73
2022/07/26 02:44:10;;;;;;;1.30;1.10;;;17.90;99.90;;;;;;5032431;28;20660;-72
2022/07/26 02:46:36;;;;;;;2.63;1.20;;;18.00;99.90;;;;;;5032210;28;20163;-73
2022/07/26 02:49:02;;;;;;;1.50;1.10;;;17.90;99.90;;;;;;5032345;28;20171;-72
2022/07/26 02:51:28;;;;;;;2.80;1.73;;;17.90;99.90;;;;;;5032082;28;20207;-72
2022/07/26 02:53:54;;;;;;;4.53;1.13;;;17.90;99.90;;;;;;5032331;28;20433;-73
2022/07/26 02:56:20;;;;;;;1.57;1.23;;;17.90;99.90;;;;;;5032070;28;20262;-72
2022/07/26 02:58:45;;;;;;;2.20;1.60;;;17.90;99.90;;;;;;5032285;28;20247;-72
2022/07/26 03:01:11;;;;;;;3.17;1.40;;;17.80;99.90;;;;;;5032028;28;20453;-73
2022/07/26 03:03:37;;;;;;;1.63;1.23;;;17.80;99.90;;;;;;5032361;28;20174;-72
2022/07/26 03:06:02;;;;;;;1.73;1.03;;;17.80;99.90;;;;;;5030458;28;20203;-72
2022/07/26 03:08:28;;;;;;;1.90;1.20;;;17.80;99.90;;;;;;5032074;28;20167;-72
2022/07/26 03:10:54;;;;;;;5.13;1.80;;;17.80;99.90;;;;;;5030814;28;20188;-73
2022/07/26 03:13:19;;;;;;;2.53;1.30;;;17.70;99.90;;;;;;5032027;28;20661;-73
2022/07/26 03:15:45;;;;;;;1.93;1.50;;;17.70;99.90;;;;;;5046949;28;20168;-73
2022/07/26 03:18:10;;;;;;;2.07;1.27;;;17.70;99.90;;;;;;5031799;28;20556;-73
2022/07/26 03:20:36;;;;;;;2.63;1.50;;;17.70;99.90;;;;;;5031818;28;20746;-73
2022/07/26 03:23:01;;;;;;;3.97;1.20;;;17.60;99.90;;;;;;5031921;28;20195;-73
2022/07/26 03:25:27;;;;;;;3.33;1.40;;;17.70;99.90;;;;;;5030930;28;20534;-72
2022/07/26 03:27:56;;;;;;;2.50;1.00;;;17.60;99.90;;;;;;5031800;28;20568;-73
2022/07/26 03:30:22;;;;;;;2.33;1.20;;;17.60;99.90;;;;;;5031820;28;20183;-73
2022/07/26 03:32:48;;;;;;;1.53;1.30;;;17.60;99.90;;;;;;5031784;28;20402;-73
2022/07/26 03:35:14;;;;;;;2.93;1.60;;;17.70;99.90;;;;;;5031466;28;20413;-73
2022/07/26 03:37:39;;;;;;;1.53;1.10;;;17.70;99.90;;;;;;5031708;28;20394;-72
2022/07/26 03:40:07;;;;;;;3.40;1.70;;;17.70;99.90;;;;;;5031709;28;20212;-72
2022/07/26 03:42:33;;;;;;;2.43;1.30;;;17.70;99.90;;;;;;5031749;28;20680;-72
2022/07/26 03:44:59;;;;;;;4.70;1.90;;;17.70;99.90;;;;;;5031251;28;20922;-73
2022/07/26 03:47:24;;;;;;;3.80;1.77;;;17.80;99.90;;;;;;5031659;28;20422;-73
2022/07/26 03:49:50;;;;;;;2.30;1.50;;;17.90;99.90;;;;;;5033642;28;20652;-73
2022/07/26 03:52:15;;;;;;;4.50;1.50;;;17.90;99.90;;;;;;5035475;28;20771;-73
2022/07/26 03:54:41;;;;;;;7.10;2.07;;;17.90;99.90;;;;;;5035118;28;20171;-73
2022/07/26 03:57:07;;;;;;;3.33;1.90;;;17.90;99.90;;;;;;5035467;28;20191;-72
2022/07/26 03:59:32;;;;;;;4.20;1.57;;;18.00;99.90;;;;;;5035289;28;20205;-73
2022/07/26 04:01:58;;;;;;;1.90;1.53;;;18.00;99.90;;;;;;5035530;28;20170;-73
2022/07/26 04:04:23;;;;;;;3.97;1.90;;;18.00;99.90;;;;;;5034981;28;20171;-73
2022/07/26 04:06:49;;;;;;;1.87;1.20;;;18.00;99.90;;;;;;5035322;28;20160;-73
2022/07/26 04:09:14;;;;;;;1.40;1.30;;;18.00;99.90;;;;;;5035211;28;20564;-72
2022/07/26 04:11:41;;;;;;;4.13;1.70;;;18.00;99.90;;;;;;5035257;28;20559;-72
2022/07/26 04:14:07;;;;;;;2.57;2.30;;;18.00;99.90;;;;;;5035007;28;20160;-73
2022/07/26 04:16:33;;;;;;;4.03;1.60;;;18.10;99.90;;;;;;5034807;28;20406;-72
2022/07/26 04:18:59;;;;;;;2.00;1.80;;;18.10;99.90;;;;;;5034416;28;20452;-72
2022/07/26 04:21:24;;;;;;;2.80;1.83;;;18.10;99.90;;;;;;5034659;28;20433;-72
2022/07/26 04:23:50;;;;;;;4.30;2.13;;;18.20;99.90;;;;;;5050186;28;20637;-72
2022/07/26 04:26:16;;;;;;;3.97;2.10;;;18.20;99.90;;;;;;5034569;28;20253;-73
2022/07/26 04:28:42;;;;;;;5.90;1.83;;;18.20;99.90;;;;;;5034699;28;20472;-73
2022/07/26 04:31:08;;;;;;;2.67;1.70;;;18.30;99.90;;;;;;5034736;28;20829;-73
2022/07/26 04:33:34;;;;;;;3.03;2.80;;;18.30;99.90;;;;;;5034786;28;20175;-72
2022/07/26 04:36:00;;;;;;;3.50;1.50;;;18.40;99.90;;;;;;5034475;28;20772;-72
2022/07/26 04:38:26;;;;;;;4.57;2.10;;;18.40;99.90;;;;;;5034495;28;20171;-72
2022/07/26 04:40:52;;;;;;;1.90;1.70;;;18.50;99.90;;;;;;5049561;28;20449;-72
2022/07/26 04:43:18;;;;;;;3.00;1.50;;;18.50;99.90;;;;;;5034583;28;20178;-72
2022/07/26 04:45:44;;;;;;;4.37;1.73;;;18.50;99.90;;;;;;5034119;28;20249;-72
2022/07/26 04:48:10;;;;;;;1.80;1.70;;;18.50;99.90;;;;;;5034468;28;20414;-72
2022/07/26 04:50:36;;;;;;;2.20;2.10;;;18.60;99.90;;;;;;5049555;28;20521;-73
2022/07/26 04:53:02;;;;;;;1.80;1.70;;;18.60;99.90;;;;;;5034329;28;20623;-74
2022/07/26 04:55:27;;;;;;;2.00;1.77;;;18.60;99.90;;;;;;5034085;28;20255;-73
2022/07/26 04:57:53;;;;;;;2.17;1.70;;;18.60;99.90;;;;;;5034286;28;20172;-74
2022/07/26 05:00:22;;;;;;;4.20;2.10;;;18.60;99.90;;;;;;5033159;28;20191;-73
2022/07/26 05:02:49;;;;;;;3.70;1.80;;;18.70;99.90;;;;;;5034212;28;20164;-73
2022/07/26 05:05:15;;;;;;;6.47;1.90;;;18.70;99.90;;;;;;5049211;28;21001;-73
2022/07/26 05:07:45;;;;;;;8.83;2.27;;;18.70;99.90;;;;;;5034115;28;20407;-73
2022/07/26 05:10:12;;;;;;;4.20;2.60;;;18.70;99.90;;;;;;5034105;28;20218;-73
2022/07/26 05:12:37;;;;;;;2.30;1.87;;;18.70;99.90;;;;;;5033914;28;20425;-74
2022/07/26 05:15:04;;;;;;;5.93;1.80;;;18.80;99.90;;;;;;5033637;28;20422;-73
2022/07/26 05:17:29;;;;;;;5.87;1.47;;;18.70;99.90;;;;;;5033996;28;20267;-73
2022/07/26 05:19:55;;;;;;;4.33;2.13;;;18.80;99.90;;;;;;5033885;28;20867;-74
2022/07/26 05:22:20;;;;;;;4.83;2.73;;;18.80;99.90;;;;;;5033919;28;20509;-73
2022/07/26 05:24:46;;;;;;;10.00;2.77;;;18.90;99.90;;;;;;5033600;28;20684;-73
2022/07/26 05:27:11;;;;;;;11.27;2.77;;;18.90;99.90;;;;;;5033764;28;20175;-74
2022/07/26 05:29:37;;;;;;;5.43;2.33;;;19.00;99.90;;;;;;5033767;28;20195;-74
2022/07/26 05:32:03;;;;;;;2.70;2.50;;;19.00;99.90;;;;;;5033594;28;20175;-74
2022/07/26 05:34:28;;;;;;;11.10;2.60;;;19.10;99.90;;;;;;5033388;28;20172;-73
2022/07/26 05:36:54;;;;;;;6.50;2.40;;;19.10;99.90;;;;;;5033881;28;20164;-74
2022/07/26 05:39:19;;;;;;;8.83;2.33;;;19.20;99.90;;;;;;5033334;28;20202;-74
2022/07/26 05:41:45;;;;;;;7.70;2.43;;;19.20;99.90;;;;;;5033472;28;20199;-74
2022/07/26 05:44:10;;;;;;;6.20;3.17;;;19.30;99.90;;;;;;5033364;28;20194;-74
2022/07/26 05:46:36;;;;;;;3.27;2.97;;;19.30;99.90;;;;;;5032984;28;20207;-74
2022/07/26 05:49:05;;;;;;;3.70;1.90;;;19.30;99.90;;;;;;5033430;28;20171;-73
2022/07/26 05:51:32;;;;;;;9.00;2.20;;;19.30;99.90;;;;;;5033078;28;20203;-74
2022/07/26 05:53:57;;;;;;;5.83;2.17;;;19.30;99.90;;;;;;5033182;28;20410;-74
2022/07/26 05:56:23;;;;;;;2.87;2.40;;;19.40;99.90;;;;;;5032682;28;20442;-73
2022/07/26 05:58:49;;;;;;;10.40;3.43;;;19.30;99.90;;;;;;5033122;28;20224;-74
2022/07/26 06:01:14;;;;;;;2.53;1.93;;;19.40;99.90;;;;;;5033100;28;20741;-74
2022/07/26 06:03:40;;;;;;;2.20;2.00;;;19.40;99.90;;;;;;5033244;28;20172;-73
2022/07/26 06:06:05;;;;;;;3.60;2.10;;;19.40;99.90;;;;;;5032525;28;20230;-73
2022/07/26 06:08:31;;;;;;;11.00;2.80;;;19.40;99.90;;;;;;5033074;28;20665;-73
2022/07/26 06:10:57;;;;;;;2.87;2.33;;;19.40;99.90;;;;;;5032693;28;20199;-74
2022/07/26 06:13:22;;;;;;;3.70;2.67;;;19.50;99.90;;;;;;5031458;28;20176;-74
2022/07/26 06:15:49;;;;;;;4.90;3.33;;;19.50;99.90;;;;;;5032604;28;20198;-74
2022/07/26 06:18:15;;;;;;;4.60;3.27;;;19.50;99.90;;;;;;5032826;28;20695;-74
2022/07/26 06:20:45;;;;;;;4.33;2.63;;;19.50;99.90;;;;;;5032796;28;20438;-74
2022/07/26 06:23:11;;;;;;;5.10;2.27;;;19.50;99.90;;;;;;5032824;28;20182;-74
2022/07/26 06:25:37;;;;;;;2.10;1.93;;;19.40;99.90;;;;;;5032258;28;20454;-74
2022/07/26 06:28:04;;;;;;;4.33;2.73;;;19.50;99.90;;;;;;5032447;28;20414;-74
2022/07/26 06:30:30;;;;;;;3.70;2.20;;;19.50;99.90;;;;;;5031264;28;20198;-74
2022/07/26 06:32:56;;;;;;;9.43;4.87;;;19.50;99.90;;;;;;5032440;28;20406;-74
2022/07/26 06:35:22;;;;;;;5.30;3.63;;;19.50;99.90;;;;;;5032359;28;20176;-73
2022/07/26 06:37:48;;;;;;;3.43;2.77;;;19.60;99.90;;;;;;5032410;28;20290;-73
2022/07/26 06:40:14;;;;;;;4.60;2.63;;;19.70;99.90;;;;;;5032292;28;20806;-73
2022/07/26 06:42:39;;;;;;;2.77;2.13;;;19.70;99.90;;;;;;5032357;28;20414;-73
2022/07/26 06:45:06;;;;;;;3.07;2.30;;;19.80;99.90;;;;;;5031972;28;20195;-73
2022/07/26 06:47:31;;;;;;;5.30;2.80;;;19.80;99.90;;;;;;5032415;28;20178;-73
2022/07/26 06:49:57;;;;;;;13.57;3.20;;;19.90;99.90;;;;;;5032248;28;20931;-73
2022/07/26 06:52:22;;;;;;;4.90;2.30;;;19.90;99.90;;;;;;5032234;28;20671;-73
2022/07/26 06:54:48;;;;;;;4.37;2.30;;;20.00;99.90;;;;;;5031995;28;20641;-73
2022/07/26 06:57:14;;;;;;;4.80;2.33;;;20.10;99.90;;;;;;5032141;28;20175;-73
2022/07/26 06:59:40;;;;;;;16.80;4.50;;;20.20;99.90;;;;;;5032151;28;20792;-73
2022/07/26 07:02:05;;;;;;;4.37;3.23;;;20.30;99.90;;;;;;5032156;28;20171;-73
2022/07/26 07:04:32;;;;;;;5.80;3.13;;;20.50;99.90;;;;;;5031706;28;20691;-73
2022/07/26 07:07:03;;;;;;;4.27;2.60;;;20.60;99.90;;;;;;5032081;28;20171;-73
2022/07/26 07:09:29;;;;;;;2.50;2.20;;;20.70;99.90;;;;;;5031983;28;20917;-73
2022/07/26 07:11:55;;;;;;;5.17;2.73;;;20.80;99.90;;;;;;5031985;28;20505;-73
2022/07/26 07:14:20;;;;;;;5.20;2.27;;;20.90;99.90;;;;;;5031774;28;20483;-73
2022/07/26 07:16:46;;;;;;;6.17;3.20;;;21.10;99.90;;;;;;5032039;28;20221;-73
2022/07/26 07:19:12;;;;;;;12.27;3.70;;;21.20;99.90;;;;;;5031885;28;20189;-73
2022/07/26 07:21:38;;;;;;;5.40;3.47;;;21.30;99.90;;;;;;5031944;28;20672;-73
2022/07/26 07:24:04;;;;;;;4.93;3.03;;;21.50;99.90;;;;;;5036328;28;20195;-73
2022/07/26 07:26:30;;;;;;;4.37;3.87;;;21.70;99.90;;;;;;5038121;28;20456;-74
2022/07/26 07:28:56;;;;;;;8.13;2.93;;;21.70;99.90;;;;;;5038390;28;20426;-73
2022/07/26 07:31:21;;;;;;;6.40;3.53;;;21.70;99.90;;;;;;5038374;28;20249;-74
2022/07/26 07:33:47;;;;;;;9.50;4.43;;;21.60;99.90;;;;;;5038574;28;20170;-74
2022/07/26 07:36:12;;;;;;;4.23;3.03;;;21.40;99.90;;;;;;5038068;28;20175;-74
2022/07/26 07:38:38;;;;;;;5.30;4.70;;;21.40;99.90;;;;;;5038382;28;20229;-74
2022/07/26 07:41:04;;;;;;;6.00;5.40;;;21.50;99.90;;;;;;5038189;28;20621;-74
2022/07/26 07:43:29;;;;;;;4.57;3.80;;;21.60;99.90;;;;;;5038312;28;20189;-74
2022/07/26 07:45:55;;;;;;;4.60;3.07;;;21.60;99.90;;;;;;5037914;28;20203;-73
2022/07/26 07:48:20;;;;;;;7.07;4.40;;;21.60;99.90;;;;;;5038250;28;20164;-73
2022/07/26 07:50:46;;;;;;;4.87;4.20;;;21.70;99.90;;;;;;5038311;28;20187;-74
2022/07/26 07:53:11;;;;;;;3.93;3.53;;;21.80;99.90;;;;;;5038309;28;20274;-74
2022/07/26 07:55:37;;;;;;;5.77;4.00;;;22.00;99.90;;;;;;5037905;28;20638;-74
2022/07/26 07:58:02;;;;;;;12.40;4.67;;;22.10;99.90;;;;;;5038222;28;20195;-74
2022/07/26 08:00:28;;;;;;;12.73;5.67;;;22.30;99.90;;;;;;5038157;28;20223;-73
2022/07/26 08:02:54;;;;;;;10.03;4.30;;;22.60;99.90;;;;;;5038159;28;20529;-73
2022/07/26 08:05:19;;;;;;;6.53;4.10;;;22.90;99.90;;;;;;5037784;28;20195;-73
2022/07/26 08:07:45;;;;;;;6.17;5.00;;;23.10;99.90;;;;;;5038168;28;20582;-73
2022/07/26 08:10:11;;;;;;;4.57;4.13;;;23.20;99.90;;;;;;5038003;28;20188;-72
2022/07/26 08:12:36;;;;;;;7.60;4.70;;;23.30;99.90;;;;;;5038057;28;20159;-72
2022/07/26 08:15:03;;;;;;;7.60;4.83;;;23.50;99.90;;;;;;5037725;28;20175;-72
2022/07/26 08:17:29;;;;;;;5.03;3.70;;;23.80;99.90;;;;;;5037814;28;20211;-71
2022/07/26 08:19:54;;;;;;;8.73;5.83;;;24.20;99.90;;;;;;5037987;28;20430;-72
2022/07/26 08:22:20;;;;;;;4.47;4.03;;;24.90;99.90;;;;;;5037974;28;20585;-72
2022/07/26 08:24:45;;;;;;;6.50;4.70;;;25.50;99.90;;;;;;5037547;28;20260;-72
2022/07/26 08:27:12;;;;;;;6.13;5.17;;;26.10;99.90;;;;;;5037925;28;20169;-72
2022/07/26 08:29:38;;;;;;;6.03;5.43;;;27.10;99.90;;;;;;5037929;28;20191;-73
2022/07/26 08:32:04;;;;;;;6.80;4.87;;;27.60;99.90;;;;;;5037925;28;20412;-72
2022/07/26 08:34:30;;;;;;;10.50;5.00;;;27.70;99.90;;;;;;5036725;28;20194;-72
2022/07/26 08:36:55;;;;;;;6.20;5.17;;;27.20;99.90;;;;;;5034775;28;20410;-72
2022/07/26 08:39:21;;;;;;;10.80;5.47;;;26.90;99.90;;;;;;5034583;28;20176;-72
2022/07/26 08:41:46;;;;;;;8.13;5.17;;;27.00;99.90;;;;;;5049935;28;20184;-72
2022/07/26 08:44:12;;;;;;;7.67;5.50;;;27.00;99.90;;;;;;5034467;28;20178;-72
2022/07/26 08:46:40;;;;;;;8.30;5.60;;;27.10;99.90;;;;;;5034443;28;20202;-72
2022/07/26 08:49:08;;;;;;;6.97;6.27;;;27.10;99.90;;;;;;5034527;28;20175;-72
2022/07/26 08:51:42;;;;;;;5.87;4.77;;;27.50;99.90;;;;;;5033871;28;20532;-72
2022/07/26 08:54:09;;;;;;;10.70;6.37;;;29.00;99.90;;;;;;5034416;28;20798;-70
2022/07/26 08:56:39;;;;;;;4.30;3.53;;;30.40;99.90;;;;;;5034219;28;20801;-70
2022/07/26 08:59:12;;;;;;;5.97;4.70;;;31.30;97.50;;;;;;5033148;28;20493;-70
2022/07/26 09:02:09;;;;;;;8.23;4.43;;;32.90;93.10;;;;;;5034229;28;20430;-71
2022/07/26 09:04:38;;;;;;;4.93;4.27;;;34.50;76.70;;;;;;5033956;28;20827;-71
2022/07/26 09:07:05;;;;;;;6.60;5.60;;;35.20;72.00;;;;;;5034107;28;20421;-71
2022/07/26 09:09:32;;;;;;;7.97;4.13;;;35.30;64.40;;;;;;5033977;28;20517;-71
2022/07/26 09:12:11;;;;;;;7.23;3.97;;;35.40;65.50;;;;;;5034110;28;20962;-71
2022/07/26 09:14:38;;;;;;;4.93;3.80;;;35.90;61.50;;;;;;5033899;28;20398;-71
2022/07/26 09:17:04;;;;;;;9.33;4.33;;;36.10;58.00;;;;;;5034075;28;20406;-71
2022/07/26 09:19:30;;;;;;;3.93;3.63;;;36.30;57.10;;;;;;5033973;28;20521;-71
2022/07/26 09:22:08;;;;;;;3.43;3.07;;;36.60;57.60;;;;;;5033908;28;20493;-71
2022/07/26 09:24:36;;;;;;;6.20;4.00;;;37.00;55.20;;;;;;5033640;28;20535;-71
2022/07/26 09:27:04;;;;;;;5.67;4.13;;;37.60;53.30;;;;;;5033900;28;20517;-72
2022/07/26 09:29:40;;;;;;;3.93;3.30;;;38.60;53.00;;;;;;5033755;28;20493;-72
2022/07/26 09:32:25;;;;;;;4.50;4.10;;;39.60;51.40;;;;;;5033713;28;20406;-72
2022/07/26 09:35:07;;;;;;;4.40;4.07;;;40.40;47.30;;;;;;5033549;28;20410;-72
2022/07/26 09:37:38;;;;;;;6.73;4.70;;;40.90;45.90;;;;;;5033572;28;20747;-72
2022/07/26 09:40:10;;;;;;;6.47;4.43;;;40.00;44.60;;;;;;5033543;28;20480;-71
2022/07/26 09:42:36;;;;;;;3.20;2.90;;;38.20;47.10;;;;;;5033568;28;21043;-72
2022/07/26 09:45:13;;;;;;;8.60;3.90;;;37.40;48.60;;;;;;5033133;28;20460;-71
2022/07/26 09:47:39;;;;;;;11.73;4.63;;;36.40;49.00;;;;;;5032965;28;20468;-71
2022/07/26 09:50:13;;;;;;;4.40;4.10;;;35.30;51.30;;;;;;5033317;28;20814;-71
2022/07/26 09:52:39;;;;;;;6.40;3.17;;;34.70;53.00;;;;;;5033273;28;20309;-71
2022/07/26 09:55:07;;;;;;;3.10;2.90;;;35.40;51.70;;;;;;5031715;28;20861;-71
2022/07/26 09:57:34;;;;;;;6.33;3.60;;;35.20;51.40;;;;;;5033278;28;20178;-70
2022/07/26 10:00:09;;;;;;;2.87;2.57;;;34.50;51.70;;;;;;5031985;28;20947;-71
2022/07/26 10:02:34;;;;;;;4.27;3.33;;;34.70;53.60;;;;;;5048585;28;20460;-70
2022/07/26 10:05:00;;;;;;;3.67;3.33;;;34.90;52.00;;;;;;5032796;28;20469;-72
2022/07/26 10:07:26;;;;;;;3.47;3.07;;;34.50;52.00;;;;;;5048383;28;20233;-72
2022/07/26 10:10:03;;;;;;;5.53;2.90;;;34.30;52.80;;;;;;5031784;28;20282;-70
2022/07/26 10:12:31;;;;;;;2.70;2.50;;;35.00;54.00;;;;;;5032970;28;20202;-70
2022/07/26 10:14:57;;;;;;;4.10;2.33;;;35.60;50.70;;;;;;5031653;28;20513;-71
2022/07/26 10:17:25;;;;;;;2.40;2.20;;;35.00;49.70;;;;;;5048149;28;20501;-71
2022/07/26 10:19:54;;;;;;;3.33;2.50;;;34.40;51.30;;;;;;5032828;28;20191;-72
2022/07/26 10:22:30;;;;;;;3.30;2.70;;;35.20;52.40;;;;;;5032728;28;20765;-72
2022/07/26 10:25:17;;;;;;;3.20;2.93;;;36.70;50.80;;;;;;5032261;28;20453;-72
2022/07/26 10:27:51;;;;;;;6.90;4.03;;;37.60;49.30;;;;;;5032377;28;20521;-72
2022/07/26 10:30:17;;;;;;;4.10;2.70;;;38.40;48.40;;;;;;5032547;28;20389;-73
2022/07/26 10:33:06;;;;;;;7.70;2.97;;;39.50;45.90;;;;;;5032618;28;20414;-72
2022/07/26 10:35:35;;;;;;;3.70;2.70;;;39.10;44.30;;;;;;5031012;28;20179;-72
2022/07/26 10:38:21;;;;;;;2.57;2.37;;;38.30;46.30;;;;;;5032557;28;20437;-72
2022/07/26 10:41:06;;;;;;;2.60;2.40;;;38.70;46.60;;;;;;5032583;28;20422;-72
2022/07/26 10:43:33;;;;;;;2.27;2.07;;;39.90;45.10;;;;;;5032434;28;20751;-72
2022/07/26 10:46:17;;;;;;;1.97;1.77;;;40.50;42.20;;;;;;5032146;28;20800;-72
2022/07/26 10:48:58;;;;;;;2.60;2.40;;;41.30;41.20;;;;;;5032298;28;20380;-72
2022/07/26 10:51:31;;;;;;;2.40;1.93;;;41.10;38.40;;;;;;5032023;28;20478;-72
2022/07/26 10:54:02;;;;;;;6.50;4.20;;;39.60;41.00;;;;;;5047801;28;20906;-72
2022/07/26 10:56:28;;;;;;;2.73;2.00;;;37.50;41.60;;;;;;5047374;28;20549;-72
2022/07/26 10:58:54;;;;;;;2.90;2.57;;;36.00;44.70;;;;;;5031321;28;20413;-72
2022/07/26 11:01:19;;;;;;;2.33;2.00;;;34.70;46.60;;;;;;5032051;28;20851;-71
2022/07/26 11:03:45;;;;;;;2.37;2.20;;;33.70;48.90;;;;;;5032104;28;20199;-72
2022/07/26 11:06:18;;;;;;;2.20;2.00;;;33.20;50.50;;;;;;5031798;28;20191;-72
2022/07/26 11:08:46;;;;;;;4.07;2.30;;;33.10;50.50;;;;;;5032093;28;20167;-72
2022/07/26 11:11:12;;;;;;;3.53;2.60;;;32.70;50.80;;;;;;5032004;28;20431;-71
2022/07/26 11:13:39;;;;;;;5.87;2.93;;;32.00;51.10;;;;;;5030601;28;20927;-72
2022/07/26 11:16:07;;;;;;;3.20;2.10;;;31.60;52.90;;;;;;5031949;28;20410;-71
2022/07/26 11:18:37;;;;;;;2.60;2.40;;;31.20;54.00;;;;;;5032122;28;20471;-71
2022/07/26 11:21:10;;;;;;;2.60;2.40;;;30.80;54.90;;;;;;5031946;28;21014;-71
2022/07/26 11:23:38;;;;;;;3.10;2.50;;;30.30;57.30;;;;;;5031951;28;20411;-71
2022/07/26 11:26:07;;;;;;;2.47;2.27;;;29.40;56.60;;;;;;5031497;28;20476;-71
2022/07/26 11:28:55;;;;;;;2.60;2.30;;;28.70;57.80;;;;;;5031839;28;20418;-71
2022/07/26 11:31:45;;;;;;;3.80;2.93;;;27.80;59.10;;;;;;5030492;28;20426;-71
2022/07/26 11:34:17;;;;;;;3.07;2.77;;;27.00;62.90;;;;;;5031817;28;20428;-71
2022/07/26 11:36:44;;;;;;;4.50;2.40;;;26.60;67.40;;;;;;5031765;28;20904;-71
2022/07/26 11:39:15;;;;;;;2.67;2.47;;;26.10;76.80;;;;;;5031831;28;20931;-71
2022/07/26 11:41:42;;;;;;;3.63;3.30;;;25.70;78.90;;;;;;5030554;28;20418;-71
2022/07/26 11:44:15;;;;;;;2.10;1.90;;;25.30;79.20;;;;;;5031687;28;20916;-71
2022/07/26 11:46:46;;;;;;;2.43;2.00;;;25.00;77.90;;;;;;5031677;28;20453;-71
2022/07/26 11:49:18;;;;;;;1.97;1.77;;;24.80;79.70;;;;;;5031678;28;20411;-71
2022/07/26 11:51:52;;;;;;;2.53;2.13;;;24.60;84.60;;;;;;5031547;28;20505;-70
2022/07/26 11:54:19;;;;;;;3.67;2.73;;;24.50;87.60;;;;;;5031501;28;20771;-71
2022/07/26 11:56:55;;;;;;;2.03;1.93;;;24.40;89.00;;;;;;5031722;28;20429;-70
2022/07/26 11:59:23;;;;;;;2.20;2.00;;;24.20;92.20;;;;;;5031526;28;20453;-70
2022/07/26 12:01:49;;;;;;;2.57;2.23;;;24.20;92.90;;;;;;5031598;28;20418;-71
2022/07/26 12:04:27;;;;;;;2.23;2.13;;;24.10;93.60;;;;;;5031241;28;20414;-71
2022/07/26 12:06:54;;;;;;;2.57;2.37;;;24.00;96.40;;;;;;5031534;28;20440;-71
2022/07/26 12:09:33;;;;;;;3.80;2.70;;;23.90;99.10;;;;;;5032251;28;20393;-70
2022/07/26 12:11:59;;;;;;;2.80;2.60;;;23.90;99.90;;;;;;5035265;28;20394;-71
2022/07/26 12:14:30;;;;;;;2.43;2.23;;;23.70;99.90;;;;;;5033677;28;20402;-71
2022/07/26 12:16:57;;;;;;;4.80;3.20;;;23.70;99.90;;;;;;5035248;28;20386;-71
2022/07/26 12:19:26;;;;;;;2.70;2.50;;;23.70;99.90;;;;;;5035015;28;20941;-71
2022/07/26 12:21:53;;;;;;;4.47;2.40;;;23.60;99.90;;;;;;5034651;28;20460;-71
2022/07/26 12:24:37;;;;;;;2.57;2.37;;;23.60;99.90;;;;;;5034724;28;20395;-71
2022/07/26 12:27:21;;;;;;;1.70;1.60;;;23.70;99.90;;;;;;5035150;28;20493;-71
2022/07/26 12:29:51;;;;;;;2.57;2.37;;;23.70;99.90;;;;;;5034974;28;20418;-73
2022/07/26 12:32:20;;;;;;;6.83;5.73;;;23.80;99.90;;;;;;5033684;28;20440;-72
2022/07/26 12:34:59;;;;;;;3.23;2.80;;;24.10;99.90;;;;;;5034400;28;20403;-73
2022/07/26 12:37:28;;;;;;;3.10;2.80;;;24.30;99.90;;;;;;5034812;28;20402;-72
2022/07/26 12:40:16;;;;;;;4.13;3.50;;;24.60;99.90;;;;;;5034779;28;20423;-73
2022/07/26 12:42:49;;;;;;;3.13;2.67;;;24.80;99.90;;;;;;5034767;28;20398;-73
2022/07/26 12:45:20;;;;;;;3.03;2.77;;;24.90;99.90;;;;;;5034301;28;20504;-73
2022/07/26 12:47:49;;;;;;;3.57;3.37;;;25.10;99.90;;;;;;5034645;28;20407;-73